バルセロナ の空港の天気 - METARとTAF

バルセロナ・エル・プラット国際空港 ( LEBL / BCN ) - スペイン バルセロナ
飛行場実況気象(Metar)
観測時間06/16 11:00 CEST (06/16 09:00 UTC)
風向・風速南東 3m/s
視程10km以上
天気現象
少しの雲 雲底高度 760m
気温22℃
湿度65%
気圧1020hPa
METARLEBL 160900Z 14006KT 110V180 9999 FEW025 22/15 Q1020 NOSIG
過去の天気等 Google飛行場航空写真 Wunderground天気予報

過去48時間のMETAR

飛行場予報(TAF)
発表時間: 6/16 07:00 CEST (6/16 05:00 UTC)
予報対象時間: 16日8時 CEST ~ 17日8時 CEST
風向・風速西北西 3m/s
視程10km以上
少しの雲 雲底高度 610m
16日11時 CEST ~ 16日14時 CEST に徐々に
風向・風速南西 6m/s
16日20時 CEST ~ 16日23時 CEST に徐々に
風向・風速不定 2m/s
TAF LEBL 160500Z 1606/1706 30005KT 9999 FEW020 TX24/1613Z TN16/1606Z
BECMG 1609/1612 22012KT
BECMG 1618/1621 VRB03KT